createdAt,value
2018-04-14T00:01:44.464Z,100868.63
2018-04-14T00:04:12.763Z,100862.19
2018-04-14T00:06:42.192Z,100860.79
2018-04-14T00:09:11.355Z,100853.36
2018-04-14T00:11:41.685Z,100851.99
2018-04-14T00:14:09.962Z,100848.43
2018-04-14T00:16:38.247Z,100851.02
2018-04-14T00:19:08.292Z,100844.33
2018-04-14T00:21:37.214Z,100841.00
2018-04-14T00:24:05.490Z,100841.81
2018-04-14T00:26:33.766Z,100846.82
2018-04-14T00:29:02.406Z,100851.73
2018-04-14T00:31:32.279Z,100854.60
2018-04-14T00:34:00.548Z,100850.92
2018-04-14T00:36:29.232Z,100855.75
2018-04-14T00:38:59.011Z,100857.97
2018-04-14T00:41:27.294Z,100855.00
2018-04-14T00:43:55.561Z,100854.28
2018-04-14T00:46:23.975Z,100856.73
2018-04-14T00:48:52.329Z,100859.57
2018-04-14T00:51:21.352Z,100863.64
2018-04-14T00:53:51.243Z,100860.41
2018-04-14T00:56:19.711Z,100861.73
2018-04-14T00:58:48.838Z,100873.59
2018-04-14T01:01:17.122Z,100872.08
2018-04-14T01:03:45.417Z,100873.72
2018-04-14T01:06:13.874Z,100875.33
2018-04-14T01:08:42.153Z,100872.42
2018-04-14T01:11:10.447Z,100875.28
2018-04-14T01:13:38.821Z,100871.94
2018-04-14T01:16:08.558Z,100878.30
2018-04-14T01:18:36.870Z,100889.92
2018-04-14T01:21:05.906Z,100890.38
2018-04-14T01:23:34.184Z,100896.95
2018-04-14T01:26:02.567Z,100902.75
2018-04-14T01:28:30.900Z,100909.83
2018-04-14T01:31:00.027Z,100906.09
2018-04-14T01:33:29.970Z,100907.23
2018-04-14T01:36:01.442Z,100904.03
2018-04-14T01:38:32.583Z,100893.00
2018-04-14T01:41:01.187Z,100895.69
2018-04-14T01:43:30.234Z,100898.00
2018-04-14T01:45:58.694Z,100892.27
2018-04-14T01:48:27.041Z,100888.56
2018-04-14T01:50:56.098Z,100891.02
2018-04-14T01:53:24.689Z,100898.50
2018-04-14T01:55:53.002Z,100901.89
2018-04-14T01:58:22.055Z,100914.22
2018-04-14T02:00:50.350Z,100910.05
2018-04-14T02:03:18.795Z,100903.83
2018-04-14T02:05:47.806Z,100900.52
2018-04-14T02:08:16.090Z,100904.71
2018-04-14T02:10:44.667Z,100902.55
2018-04-14T02:13:13.175Z,100908.45
2018-04-14T02:15:42.138Z,100918.90
2018-04-14T02:18:10.454Z,100918.09
2018-04-14T02:20:40.673Z,100916.37
2018-04-14T02:23:10.042Z,100916.44
2018-04-14T02:25:38.423Z,100915.19
2018-04-14T02:28:06.722Z,100919.34
2018-04-14T02:30:36.815Z,100919.61
2018-04-14T02:33:05.099Z,100915.88
2018-04-14T02:35:33.373Z,100920.96
2018-04-14T02:38:02.433Z,100919.54
2018-04-14T02:40:31.479Z,100924.64
2018-04-14T02:43:00.132Z,100920.89
2018-04-14T02:45:28.639Z,100915.41
2018-04-14T02:47:57.030Z,100914.66
2018-04-14T02:50:25.664Z,100915.95
2018-04-14T02:52:55.032Z,100920.47
2018-04-14T02:55:24.158Z,100929.23
2018-04-14T02:57:53.463Z,100937.16
2018-04-14T03:00:23.645Z,100936.74
2018-04-14T03:02:51.930Z,100942.90
2018-04-14T03:05:21.309Z,100947.16
2018-04-14T03:07:50.099Z,100943.83
2018-04-14T03:10:18.624Z,100950.02
2018-04-14T03:12:47.785Z,100945.91
2018-04-14T03:15:16.095Z,100954.87
2018-04-14T03:17:45.103Z,100960.41
2018-04-14T03:20:15.599Z,100956.64
2018-04-14T03:22:43.945Z,100960.23
2018-04-14T03:25:12.711Z,100961.53
2018-04-14T03:27:41.755Z,100973.39
2018-04-14T03:30:10.589Z,100969.72
2018-04-14T03:32:39.843Z,100972.21
2018-04-14T03:35:08.114Z,100983.34
2018-04-14T03:37:37.236Z,100991.65
2018-04-14T03:40:05.603Z,100995.95
2018-04-14T03:42:35.189Z,100994.53
2018-04-14T03:45:04.532Z,100993.26
2018-04-14T03:47:33.129Z,100997.64
2018-04-14T03:50:01.971Z,100994.81
2018-04-14T03:52:30.251Z,100996.70
2018-04-14T03:54:59.852Z,100998.80
2018-04-14T03:57:28.128Z,101007.59
2018-04-14T03:59:56.914Z,101009.08
2018-04-14T04:02:25.307Z,101016.95
2018-04-14T04:04:53.583Z,101019.94
2018-04-14T04:07:21.871Z,101020.23
2018-04-14T04:09:50.245Z,101023.19
2018-04-14T04:12:18.834Z,101027.55
2018-04-14T04:14:47.570Z,101025.00
2018-04-14T04:17:15.885Z,101023.74
2018-04-14T04:20:01.781Z,101020.53
2018-04-14T04:22:47.743Z,101014.36
2018-04-14T04:25:31.102Z,101024.70
2018-04-14T04:28:00.593Z,101023.33
2018-04-14T04:30:28.862Z,101025.97
2018-04-14T04:32:57.912Z,101020.92
2018-04-14T04:35:27.239Z,101019.80
2018-04-14T04:37:57.407Z,101017.67
2018-04-14T04:40:26.627Z,101016.05
2018-04-14T04:42:56.724Z,101020.84
2018-04-14T04:45:25.907Z,101028.59
2018-04-14T04:47:54.319Z,101022.92
2018-04-14T04:50:22.619Z,101025.06
2018-04-14T04:52:50.900Z,101028.80
2018-04-14T04:55:19.179Z,101026.03
2018-04-14T04:57:47.506Z,101023.98
2018-04-14T05:00:17.351Z,101021.90
2018-04-14T05:02:45.627Z,101020.55
2018-04-14T05:05:13.922Z,101020.94
2018-04-14T05:07:42.219Z,101021.52
2018-04-14T05:10:10.526Z,101024.93
2018-04-14T05:12:39.879Z,101022.30
2018-04-14T05:15:08.146Z,101018.33
2018-04-14T05:17:36.987Z,101029.16
2018-04-14T05:20:06.220Z,101019.22
2018-04-14T05:22:35.363Z,101022.59
2018-04-14T05:25:04.915Z,101029.81
2018-04-14T05:27:33.922Z,101026.13
2018-04-14T05:30:03.799Z,101029.11
2018-04-14T05:32:34.780Z,101025.41
2018-04-14T05:35:03.061Z,101027.00
2018-04-14T05:37:32.352Z,101029.13
2018-04-14T05:40:00.638Z,101021.67
2018-04-14T05:42:28.906Z,101025.55
2018-04-14T05:44:57.191Z,101027.59
2018-04-14T05:47:26.499Z,101035.11
2018-04-14T05:49:54.783Z,101031.86
2018-04-14T05:52:23.251Z,101034.86
2018-04-14T05:54:51.952Z,101039.38
2018-04-14T05:57:20.730Z,101040.13
2018-04-14T05:59:49.043Z,101044.28
2018-04-14T06:02:18.123Z,101049.39
2018-04-14T06:04:47.257Z,101046.42
2018-04-14T06:07:18.482Z,101057.23
2018-04-14T06:09:47.471Z,101061.89
2018-04-14T06:12:18.354Z,101059.34
2018-04-14T06:14:47.490Z,101065.95
2018-04-14T06:17:15.758Z,101063.56
2018-04-14T06:19:44.947Z,101062.67
2018-04-14T06:22:13.285Z,101061.06
2018-04-14T06:24:41.549Z,101065.67
2018-04-14T06:27:09.833Z,101074.09
2018-04-14T06:29:38.273Z,101069.52
2018-04-14T06:32:07.320Z,101078.39
2018-04-14T06:34:36.091Z,101083.42
2018-04-14T06:37:04.847Z,101083.42
2018-04-14T06:39:33.168Z,101088.41
2018-04-14T06:42:03.437Z,101090.08
2018-04-14T06:44:32.160Z,101098.97
2018-04-14T06:47:00.419Z,101105.45
2018-04-14T06:49:28.811Z,101107.55
2018-04-14T06:51:57.725Z,101117.17
2018-04-14T06:54:26.327Z,101123.88
2018-04-14T06:56:56.628Z,101123.05
2018-04-14T06:59:24.910Z,101128.87
2018-04-14T07:01:53.607Z,101126.86
2018-04-14T07:04:23.290Z,101129.26
2018-04-14T07:06:51.868Z,101120.34
2018-04-14T07:09:20.558Z,101114.95
2018-04-14T07:11:48.838Z,101108.80
2018-04-14T07:14:17.515Z,101104.20
2018-04-14T07:16:45.914Z,101101.77
2018-04-14T07:19:14.509Z,101096.47
2018-04-14T07:21:43.439Z,101089.33
2018-04-14T07:24:11.887Z,101093.91
2018-04-14T07:26:40.695Z,101096.34
2018-04-14T07:29:09.108Z,101095.09
2018-04-14T07:31:37.520Z,101098.38
2018-04-14T07:34:05.903Z,101108.73
2018-04-14T07:36:35.134Z,101106.70
2018-04-14T07:39:04.723Z,101104.16
2018-04-14T07:41:33.010Z,101123.25
2018-04-14T07:44:01.270Z,101134.06
2018-04-14T07:46:29.711Z,101148.30
2018-04-14T07:48:59.490Z,101159.05
2018-04-14T07:51:28.543Z,101176.94
2018-04-14T07:53:56.851Z,101179.03
2018-04-14T07:56:25.743Z,101176.09
2018-04-14T07:58:54.239Z,101168.66
2018-04-14T08:01:23.598Z,101176.45
2018-04-14T08:03:52.581Z,101176.48
2018-04-14T08:06:20.864Z,101176.83
2018-04-14T08:08:49.811Z,101183.84
2018-04-14T08:11:19.804Z,101189.52
2018-04-14T08:13:48.086Z,101190.44
2018-04-14T08:16:16.547Z,101191.67
2018-04-14T08:18:44.834Z,101196.23
2018-04-14T08:21:13.142Z,101196.95
2018-04-14T08:23:41.473Z,101198.30
2018-04-14T08:26:10.499Z,101199.56
2018-04-14T08:28:39.527Z,101207.13
2018-04-14T08:31:07.954Z,101217.23
2018-04-14T08:33:37.865Z,101210.39
2018-04-14T08:36:07.083Z,101205.86
2018-04-14T08:38:35.351Z,101209.91
2018-04-14T08:41:03.628Z,101204.52
2018-04-14T08:43:33.096Z,101199.98
2018-04-14T08:46:03.306Z,101207.77
2018-04-14T08:48:31.583Z,101211.62
2018-04-14T08:51:00.647Z,101218.17
2018-04-14T08:53:28.942Z,101224.28
2018-04-14T08:55:59.030Z,101236.63
2018-04-14T08:58:27.384Z,101239.19
2018-04-14T09:00:55.934Z,101235.95
2018-04-14T09:03:25.778Z,101247.88
2018-04-14T09:05:54.058Z,101247.86
2018-04-14T09:08:23.379Z,101250.22
2018-04-14T09:10:52.457Z,101251.02
2018-04-14T09:13:20.775Z,101257.67
2018-04-14T09:15:51.912Z,101264.16
2018-04-14T09:18:22.038Z,101260.34
2018-04-14T09:20:50.307Z,101263.01
2018-04-14T09:23:20.499Z,101267.39
2018-04-14T09:25:48.879Z,101267.77
2018-04-14T09:28:18.295Z,101269.69
2018-04-14T09:30:47.284Z,101275.66
2018-04-14T09:33:18.562Z,101270.64
2018-04-14T09:35:48.145Z,101274.43
2018-04-14T09:38:16.427Z,101269.08
2018-04-14T09:40:44.734Z,101262.87
2018-04-14T09:43:13.198Z,101273.42
2018-04-14T09:45:41.562Z,101271.19
2018-04-14T09:48:09.892Z,101275.02
2018-04-14T09:50:38.933Z,101287.33
2018-04-14T09:53:08.055Z,101278.15
2018-04-14T09:55:36.686Z,101289.34
2018-04-14T09:58:04.975Z,101292.94
2018-04-14T10:00:33.259Z,101293.78
2018-04-14T10:03:07.172Z,101298.80
2018-04-14T10:05:35.462Z,101294.95
2018-04-14T10:08:04.478Z,101308.29
2018-04-14T10:10:32.794Z,101307.79
2018-04-14T10:13:01.845Z,101318.63
2018-04-14T10:15:30.103Z,101309.93
2018-04-14T10:18:00.489Z,101313.45
2018-04-14T10:20:30.546Z,101312.58
2018-04-14T10:22:59.784Z,101306.69
2018-04-14T10:25:28.986Z,101310.52
2018-04-14T10:27:57.313Z,101318.08
2018-04-14T10:30:27.449Z,101315.13
2018-04-14T10:32:55.916Z,101323.23
2018-04-14T10:35:24.258Z,101319.42
2018-04-14T10:37:52.623Z,101324.78
2018-04-14T10:40:22.493Z,101329.38
2018-04-14T10:42:50.807Z,101327.27
2018-04-14T10:45:19.093Z,101332.67
2018-04-14T10:47:47.397Z,101341.12
2018-04-14T10:50:16.526Z,101339.61
2018-04-14T10:52:45.443Z,101346.41
2018-04-14T10:55:13.724Z,101354.59
2018-04-14T10:57:42.001Z,101351.77
2018-04-14T11:00:10.275Z,101358.70
2018-04-14T11:02:38.542Z,101353.39
2018-04-14T11:05:08.812Z,101366.09
2018-04-14T11:07:37.075Z,101367.32
2018-04-14T11:10:05.543Z,101367.81
2018-04-14T11:12:33.837Z,101370.27
2018-04-14T11:15:02.793Z,101369.16
2018-04-14T11:17:31.386Z,101369.83
2018-04-14T11:20:00.390Z,101371.12
2018-04-14T11:22:28.757Z,101377.66
2018-04-14T11:24:57.120Z,101377.31
2018-04-14T11:27:25.392Z,101383.45
2018-04-14T11:29:54.967Z,101381.47
2018-04-14T11:32:23.314Z,101388.00
2018-04-14T11:34:53.230Z,101385.97
2018-04-14T11:37:23.911Z,101393.01
2018-04-14T11:39:52.947Z,101395.16
2018-04-14T11:42:22.486Z,101395.89
2018-04-14T11:44:51.557Z,101409.11
2018-04-14T11:47:19.851Z,101408.41
2018-04-14T11:49:48.432Z,101413.22
2018-04-14T11:52:18.070Z,101416.13
2018-04-14T11:54:46.337Z,101421.09
2018-04-14T11:57:14.734Z,101427.98
2018-04-14T11:59:43.812Z,101428.67
2018-04-14T12:02:12.359Z,101435.89
2018-04-14T12:04:40.651Z,101437.18
2018-04-14T12:07:09.751Z,101442.51
2018-04-14T12:09:39.996Z,101447.06
2018-04-14T12:12:09.033Z,101447.59
2018-04-14T12:14:37.338Z,101451.77
2018-04-14T12:17:05.804Z,101449.53
2018-04-14T12:19:34.147Z,101451.70
2018-04-14T12:22:03.178Z,101454.88
2018-04-14T12:24:31.463Z,101460.83
2018-04-14T12:27:01.082Z,101463.29
2018-04-14T12:29:30.161Z,101466.28
2018-04-14T12:31:59.283Z,101470.44
2018-04-14T12:34:27.646Z,101469.06
2018-04-14T12:36:56.057Z,101475.89
2018-04-14T12:39:25.143Z,101480.52
2018-04-14T12:41:53.861Z,101484.72
2018-04-14T12:44:22.755Z,101487.19
2018-04-14T12:46:51.376Z,101484.97
2018-04-14T12:49:19.688Z,101493.59
2018-04-14T12:51:50.176Z,101485.29
2018-04-14T12:54:18.643Z,101501.28
2018-04-14T12:56:47.831Z,101496.86
2018-04-14T12:59:16.150Z,101502.69
2018-04-14T13:01:44.449Z,101502.25
2018-04-14T13:04:13.539Z,101505.91
2018-04-14T13:06:41.924Z,101507.63
2018-04-14T13:09:11.889Z,101501.75
2018-04-14T13:11:41.872Z,101508.84
2018-04-14T13:14:10.480Z,101505.83
2018-04-14T13:16:38.779Z,101509.24
2018-04-14T13:19:07.208Z,101515.13
2018-04-14T13:21:35.496Z,101509.86
2018-04-14T13:24:04.182Z,101512.84
2018-04-14T13:26:33.092Z,101516.34
2018-04-14T13:29:01.411Z,101517.73
2018-04-14T13:31:29.696Z,101520.16
2018-04-14T13:33:58.514Z,101522.80
2018-04-14T13:36:26.923Z,101519.51
2018-04-14T13:38:55.191Z,101524.09
2018-04-14T13:41:23.506Z,101528.17
2018-04-14T13:43:53.450Z,101535.27
2018-04-14T13:46:21.724Z,101534.42
2018-04-14T13:48:50.112Z,101534.53
2018-04-14T13:51:18.428Z,101535.88
2018-04-14T13:53:47.411Z,101537.56
2018-04-14T13:56:15.726Z,101533.73
2018-04-14T13:58:44.041Z,101541.25
2018-04-14T14:01:12.318Z,101540.42
2018-04-14T14:03:40.798Z,101537.91
2018-04-14T14:06:09.482Z,101545.73
2018-04-14T14:08:37.762Z,101543.31
2018-04-14T14:11:06.078Z,101548.92
2018-04-14T14:13:34.345Z,101550.59
2018-04-14T14:16:02.724Z,101553.01
2018-04-14T14:18:32.106Z,101553.38
2018-04-14T14:21:00.382Z,101558.06
2018-04-14T14:23:28.655Z,101555.52
2018-04-14T14:25:58.482Z,101558.14
2018-04-14T14:28:26.750Z,101561.19
2018-04-14T14:30:55.241Z,101562.30
2018-04-14T14:33:23.518Z,101562.37
2018-04-14T14:35:52.313Z,101565.80
2018-04-14T14:38:20.778Z,101562.06
2018-04-14T14:40:49.370Z,101561.14
2018-04-14T14:43:17.652Z,101562.44
2018-04-14T14:45:46.026Z,101563.11
2018-04-14T14:48:14.554Z,101568.50
2018-04-14T14:50:43.618Z,101561.47
2018-04-14T14:53:11.927Z,101569.84
2018-04-14T14:55:40.970Z,101561.84
2018-04-14T14:58:09.286Z,101567.35
2018-04-14T15:00:38.332Z,101564.34
2018-04-14T15:03:06.807Z,101565.68
2018-04-14T15:05:35.102Z,101570.85
2018-04-14T15:08:03.452Z,101566.34
2018-04-14T15:10:32.518Z,101573.34
2018-04-14T15:13:01.631Z,101575.86
2018-04-14T15:15:30.971Z,101572.42
2018-04-14T15:17:59.242Z,101578.34
2018-04-14T15:20:27.807Z,101582.91
2018-04-14T15:22:56.987Z,101579.46
2018-04-14T15:25:25.277Z,101582.34
2018-04-14T15:27:54.346Z,101587.64
2018-04-14T15:30:23.618Z,101586.61
2018-04-14T15:32:51.916Z,101590.29
2018-04-14T15:35:20.191Z,101590.42
2018-04-14T15:37:48.486Z,101593.23
2018-04-14T15:40:17.319Z,101599.14
2018-04-14T15:42:47.249Z,101598.63
2018-04-14T15:45:15.966Z,101598.10
2018-04-14T15:47:44.639Z,101601.41
2018-04-14T15:50:12.979Z,101606.50
2018-04-14T15:52:42.006Z,101609.44
2018-04-14T15:55:10.318Z,101618.86
2018-04-14T15:57:38.603Z,101624.66
2018-04-14T16:00:06.900Z,101625.93
2018-04-14T16:02:36.049Z,101626.64
2018-04-14T16:05:04.344Z,101634.20
2018-04-14T16:07:32.610Z,101632.84
2018-04-14T16:10:01.300Z,101638.33
2018-04-14T16:12:29.925Z,101642.83
2018-04-14T16:14:59.067Z,101643.19
2018-04-14T16:17:28.145Z,101637.53
2018-04-14T16:19:56.430Z,101644.46
2018-04-14T16:22:24.727Z,101642.88
2018-04-14T16:24:53.791Z,101640.42
2018-04-14T16:27:22.068Z,101640.39
2018-04-14T16:29:50.350Z,101644.97
2018-04-14T16:32:18.745Z,101642.38
2018-04-14T16:34:47.108Z,101642.73
2018-04-14T16:37:15.851Z,101641.01
2018-04-14T16:39:44.567Z,101637.98
2018-04-14T16:42:13.629Z,101643.14
2018-04-14T16:44:42.554Z,101639.15
2018-04-14T16:47:10.890Z,101637.95
2018-04-14T16:49:39.199Z,101641.32
2018-04-14T16:52:08.248Z,101632.83
2018-04-14T16:54:36.562Z,101633.01
2018-04-14T16:57:04.854Z,101631.53
2018-04-14T16:59:34.748Z,101633.20
2018-04-14T17:02:03.042Z,101629.06
2018-04-14T17:04:33.631Z,101624.86
2018-04-14T17:07:01.939Z,101623.53
2018-04-14T17:09:30.995Z,101624.77
2018-04-14T17:11:59.334Z,101626.41
2018-04-14T17:14:29.044Z,101619.26
2018-04-14T17:16:58.836Z,101621.86
2018-04-14T17:19:27.911Z,101622.79
2018-04-14T17:21:56.324Z,101614.47
2018-04-14T17:24:25.306Z,101621.86
2018-04-14T17:26:55.490Z,101620.48
2018-04-14T17:29:23.750Z,101618.81
2018-04-14T17:31:53.606Z,101616.74
2018-04-14T17:34:21.879Z,101615.50
2018-04-14T17:36:50.454Z,101614.98
2018-04-14T17:39:19.746Z,101615.95
2018-04-14T17:41:48.131Z,101613.02
2018-04-14T17:44:16.455Z,101619.32
2018-04-14T17:46:45.038Z,101617.44
2018-04-14T17:49:13.900Z,101628.89
2018-04-14T17:51:42.903Z,101616.86
2018-04-14T17:54:11.985Z,101624.76
2018-04-14T17:56:40.266Z,101626.84
2018-04-14T17:59:08.553Z,101626.80
2018-04-14T18:01:37.153Z,101625.97
2018-04-14T18:04:05.488Z,101628.57
2018-04-14T18:06:34.946Z,101636.80
2018-04-14T18:09:04.105Z,101639.72
2018-04-14T18:11:33.118Z,101634.00
2018-04-14T18:14:02.018Z,101638.87
2018-04-14T18:16:30.991Z,101635.67
2018-04-14T18:18:59.293Z,101641.07
2018-04-14T18:21:27.770Z,101634.77
2018-04-14T18:23:56.067Z,101634.96
2018-04-14T18:26:24.527Z,101639.83
2018-04-14T18:28:52.894Z,101636.97
2018-04-14T18:31:21.180Z,101643.84
2018-04-14T18:33:49.552Z,101642.72
2018-04-14T18:36:18.040Z,101641.75
2018-04-14T18:38:46.330Z,101641.30
2018-04-14T18:41:15.246Z,101647.69
2018-04-14T18:43:44.304Z,101642.20
2018-04-14T18:46:12.727Z,101646.39
2018-04-14T18:48:41.801Z,101637.17
2018-04-14T18:51:10.083Z,101633.58
2018-04-14T18:53:39.884Z,101635.16
2018-04-14T18:56:08.274Z,101638.67
2018-04-14T18:58:37.349Z,101643.63
2018-04-14T19:01:05.654Z,101641.33
2018-04-14T19:03:33.957Z,101646.31
2018-04-14T19:06:03.017Z,101642.88
2018-04-14T19:08:31.328Z,101648.99
2018-04-14T19:11:00.396Z,101657.82
2018-04-14T19:13:28.892Z,101666.16
2018-04-14T19:15:58.098Z,101670.38
2018-04-14T19:18:27.286Z,101673.80
2018-04-14T19:20:55.691Z,101676.48
2018-04-14T19:23:24.940Z,101676.99
2018-04-14T19:25:53.207Z,101671.20
2018-04-14T19:28:21.616Z,101674.08
2018-04-14T19:30:50.363Z,101678.97
2018-04-14T19:33:19.306Z,101686.61
2018-04-14T19:35:47.869Z,101684.63
2018-04-14T19:38:16.547Z,101680.98
2018-04-14T19:40:44.844Z,101679.14
2018-04-14T19:43:13.320Z,101682.96
2018-04-14T19:45:42.253Z,101683.81
2018-04-14T19:48:11.326Z,101684.18
2018-04-14T19:50:39.607Z,101683.33
2018-04-14T19:53:08.695Z,101684.20
2018-04-14T19:55:36.990Z,101681.75
2018-04-14T19:58:07.499Z,101674.91
2018-04-14T20:00:36.179Z,101671.95
2018-04-14T20:03:04.866Z,101672.78
2018-04-14T20:05:33.173Z,101667.45
2018-04-14T20:08:02.415Z,101662.88
2018-04-14T20:10:31.321Z,101658.97
2018-04-14T20:12:59.610Z,101655.16
2018-04-14T20:15:27.893Z,101653.56
2018-04-14T20:17:56.264Z,101651.53
2018-04-14T20:20:24.536Z,101658.44
2018-04-14T20:22:53.556Z,101658.20
2018-04-14T20:25:21.866Z,101656.39
2018-04-14T20:27:50.163Z,101655.23
2018-04-14T20:30:18.450Z,101661.63
2018-04-14T20:32:46.832Z,101659.84
2018-04-14T20:35:15.111Z,101655.42
2018-04-14T20:37:43.390Z,101649.91
2018-04-14T20:40:11.677Z,101659.16
2018-04-14T20:42:40.080Z,101656.61
2018-04-14T20:45:08.683Z,101655.11
2018-04-14T20:47:37.747Z,101656.44
2018-04-14T20:50:06.331Z,101654.23
2018-04-14T20:52:35.122Z,101653.33
2018-04-14T20:55:03.436Z,101658.92
2018-04-14T20:57:32.517Z,101656.86
2018-04-14T21:00:00.812Z,101650.70
2018-04-14T21:02:30.279Z,101663.08
2018-04-14T21:04:58.595Z,101658.81
2018-04-14T21:07:28.799Z,101662.09
2018-04-14T21:09:57.324Z,101659.22
2018-04-14T21:12:25.604Z,101652.96
2018-04-14T21:14:53.908Z,101654.28
2018-04-14T21:17:22.727Z,101646.39
2018-04-14T21:19:51.013Z,101644.56
2018-04-14T21:22:20.084Z,101645.89
2018-04-14T21:24:48.509Z,101653.81
2018-04-14T21:27:17.549Z,101655.53
2018-04-14T21:29:45.934Z,101652.14
2018-04-14T21:32:15.103Z,101650.45
2018-04-14T21:34:44.550Z,101651.72
2018-04-14T21:37:13.480Z,101645.55
2018-04-14T21:39:42.541Z,101651.06
2018-04-14T21:42:11.012Z,101650.55
2018-04-14T21:44:40.523Z,101654.66
2018-04-14T21:47:09.683Z,101655.05
2018-04-14T21:49:37.978Z,101653.86
2018-04-14T21:52:06.480Z,101654.58
2018-04-14T21:54:35.688Z,101646.73
2018-04-14T21:57:04.324Z,101644.64
2018-04-14T21:59:32.623Z,101649.59
2018-04-14T22:02:00.912Z,101655.05
2018-04-14T22:04:29.173Z,101657.48
2018-04-14T22:06:57.469Z,101651.32
2018-04-14T22:09:26.500Z,101652.17
2018-04-14T22:11:55.559Z,101650.47
2018-04-14T22:14:34.095Z,101657.63
2018-04-14T22:17:02.395Z,101660.09
2018-04-14T22:19:31.447Z,101659.22
2018-04-14T22:22:00.042Z,101662.89
2018-04-14T22:24:28.991Z,101670.79
2018-04-14T22:26:58.144Z,101666.69
2018-04-14T22:29:27.418Z,101675.91
2018-04-14T22:31:56.219Z,101681.84
2018-04-14T22:34:25.355Z,101688.81
2018-04-14T22:36:54.506Z,101683.74
2018-04-14T22:39:23.255Z,101686.69
2018-04-14T22:41:53.122Z,101697.07
2018-04-14T22:44:21.618Z,101702.50
2018-04-14T22:46:50.883Z,101704.55
2018-04-14T22:49:19.163Z,101698.40
2018-04-14T22:51:47.620Z,101691.30
2018-04-14T22:54:16.653Z,101694.19
2018-04-14T22:56:45.009Z,101687.56
2018-04-14T22:59:14.188Z,101678.84
2018-04-14T23:01:44.136Z,101675.94
2018-04-14T23:04:12.818Z,101676.36
2018-04-14T23:06:42.143Z,101684.17
2018-04-14T23:09:10.796Z,101680.94
2018-04-14T23:11:39.202Z,101682.58
2018-04-14T23:14:07.474Z,101685.49
2018-04-14T23:16:36.129Z,101687.16
2018-04-14T23:19:04.458Z,101695.77
2018-04-14T23:21:32.828Z,101692.59
2018-04-14T23:24:01.212Z,101691.72
2018-04-14T23:26:30.317Z,101697.16
2018-04-14T23:28:58.600Z,101693.76
2018-04-14T23:31:27.353Z,101703.33
2018-04-14T23:33:56.399Z,101703.02
2018-04-14T23:36:25.539Z,101704.23
2018-04-14T23:38:53.975Z,101710.34
2018-04-14T23:41:22.550Z,101705.79
2018-04-14T23:43:50.838Z,101707.00
2018-04-14T23:46:19.261Z,101706.19
2018-04-14T23:48:47.743Z,101704.55
2018-04-14T23:51:16.019Z,101705.84
2018-04-14T23:53:45.219Z,101702.08
2018-04-14T23:56:13.490Z,101707.06
2018-04-14T23:58:42.693Z,101706.75
